Time;durP1;ratioP1;P1;durP2;ratioP2;P2;SDS_P1;SDS_P2;PMS_P1;PMS_P2;Temp;Humidity;BMP_temperature;BMP_pressure;BME280_temperature;BME280_humidity;BME280_pressure;Samples;Min_cycle;Max_cycle;Signal;HPM_P1;HPM_P2
2023/11/16 00:01:57;;;;;;;1.30;1.10;;;7.40;99.90;;;;;;5087294;28;20636;-71
2023/11/16 00:04:26;;;;;;;7.60;1.10;;;7.40;99.90;;;;;;5093637;28;21208;-71
2023/11/16 00:06:53;;;;;;;1.00;0.87;;;7.30;99.90;;;;;;5090079;28;20615;-71
2023/11/16 00:09:19;;;;;;;1.40;1.30;;;7.20;99.90;;;;;;5091397;28;20621;-71
2023/11/16 00:11:48;;;;;;;0.97;0.90;;;7.20;99.90;;;;;;5086721;28;20632;-71
2023/11/16 00:14:16;;;;;;;1.07;1.07;;;7.20;99.90;;;;;;5086743;28;20644;-71
2023/11/16 00:16:44;;;;;;;1.20;1.10;;;7.20;99.90;;;;;;5087220;28;21019;-71
2023/11/16 00:19:12;;;;;;;0.60;0.60;;;7.20;99.90;;;;;;5086411;28;21053;-71
2023/11/16 00:21:39;;;;;;;3.10;1.10;;;7.20;99.90;;;;;;5086316;28;20548;-71
2023/11/16 00:24:06;;;;;;;10.83;2.07;;;7.20;99.90;;;;;;5086867;28;20621;-71
2023/11/16 00:26:34;;;;;;;2.20;1.10;;;7.20;99.90;;;;;;5086644;28;20629;-71
2023/11/16 00:29:02;;;;;;;1.20;1.10;;;7.10;99.90;;;;;;5086169;28;21263;-71
2023/11/16 00:31:30;;;;;;;2.73;1.20;;;7.10;99.90;;;;;;5086521;28;20653;-71
2023/11/16 00:33:57;;;;;;;1.35;1.25;;;7.20;99.90;;;;;;5086158;28;20675;-71
2023/11/16 00:36:24;;;;;;;1.80;1.00;;;7.20;99.90;;;;;;5086342;28;20720;-71
2023/11/16 00:38:51;;;;;;;2.00;1.23;;;7.20;99.90;;;;;;5086311;28;21037;-71
2023/11/16 00:41:18;;;;;;;2.20;1.23;;;7.20;99.90;;;;;;5086437;28;21170;-71
2023/11/16 00:43:45;;;;;;;3.10;1.17;;;7.10;99.90;;;;;;5091924;28;20613;-71
2023/11/16 00:46:16;;;;;;;5.53;1.27;;;7.10;99.90;;;;;;5086375;28;20726;-71
2023/11/16 00:48:43;;;;;;;0.93;0.63;;;7.10;99.90;;;;;;5085644;28;20265;-71
2023/11/16 00:51:10;;;;;;;2.00;1.10;;;7.10;99.90;;;;;;5086644;28;20627;-71
2023/11/16 00:53:42;;;;;;;1.07;0.80;;;7.10;99.90;;;;;;5091083;28;21194;-71
2023/11/16 00:56:09;;;;;;;1.10;1.00;;;7.10;99.90;;;;;;5087597;28;20942;-71
2023/11/16 00:58:36;;;;;;;0.97;0.90;;;7.20;99.90;;;;;;5093868;28;20668;-71
2023/11/16 01:01:03;;;;;;;2.83;1.37;;;7.20;99.90;;;;;;5088609;28;20660;-71
2023/11/16 01:03:31;;;;;;;3.72;0.95;;;7.20;99.90;;;;;;5093608;28;20719;-71
2023/11/16 01:05:58;;;;;;;1.65;0.88;;;7.30;99.90;;;;;;5091854;28;20199;-71
2023/11/16 01:08:29;;;;;;;0.60;0.60;;;7.20;99.90;;;;;;5088943;28;20586;-71
2023/11/16 01:11:02;;;;;;;1.23;0.73;;;7.30;99.90;;;;;;5093033;28;21199;-71
2023/11/16 01:13:38;;;;;;;0.80;0.80;;;7.20;99.90;;;;;;5091958;28;20640;-71
2023/11/16 01:16:09;;;;;;;1.03;1.00;;;7.20;99.90;;;;;;5086491;28;20613;-71
2023/11/16 01:18:38;;;;;;;1.03;0.97;;;7.10;99.90;;;;;;5086324;28;20771;-71
2023/11/16 01:21:08;;;;;;;0.77;0.77;;;7.20;99.90;;;;;;5086227;28;20644;-71
2023/11/16 01:23:35;;;;;;;2.63;1.33;;;7.10;99.90;;;;;;5090009;28;21177;-71
2023/11/16 01:26:03;;;;;;;1.57;0.90;;;7.20;99.90;;;;;;5087407;28;21208;-71
2023/11/16 01:28:32;;;;;;;1.13;0.80;;;7.00;99.90;;;;;;5091283;28;20625;-71
2023/11/16 01:31:03;;;;;;;1.13;1.00;;;7.00;99.90;;;;;;5094270;28;20672;-72
2023/11/16 01:33:29;;;;;;;6.78;0.90;;;7.00;99.90;;;;;;5094490;28;20203;-71
2023/11/16 01:35:58;;;;;;;2.42;1.30;;;7.10;99.90;;;;;;5090236;28;20195;-72
2023/11/16 01:38:25;;;;;;;0.77;0.77;;;7.00;99.90;;;;;;5092534;28;20215;-71
2023/11/16 01:40:51;;;;;;;1.23;1.10;;;7.00;99.90;;;;;;5089956;28;20201;-71
2023/11/16 01:43:18;;;;;;;0.73;0.60;;;6.90;99.90;;;;;;5092012;28;20226;-71
2023/11/16 01:45:47;;;;;;;1.30;0.97;;;6.90;99.90;;;;;;5089521;28;20206;-71
2023/11/16 01:48:20;;;;;;;2.05;1.20;;;7.00;99.90;;;;;;5089604;28;20629;-72
2023/11/16 01:50:47;;;;;;;0.70;0.70;;;7.00;99.90;;;;;;5089966;28;20207;-71
2023/11/16 01:53:15;;;;;;;0.55;0.55;;;7.00;99.90;;;;;;5097805;28;20624;-71
2023/11/16 01:55:45;;;;;;;0.80;0.80;;;7.00;99.90;;;;;;5089669;28;20195;-72
2023/11/16 01:58:13;;;;;;;1.77;1.30;;;7.00;99.90;;;;;;5091118;28;21269;-71
2023/11/16 02:00:42;;;;;;;0.90;0.90;;;7.00;99.90;;;;;;5092548;28;20277;-71
2023/11/16 02:03:10;;;;;;;1.30;1.15;;;6.90;99.90;;;;;;5089580;28;20636;-71
2023/11/16 02:05:38;;;;;;;0.70;0.70;;;7.00;99.90;;;;;;5092536;28;20664;-71
2023/11/16 02:08:08;;;;;;;3.47;1.03;;;7.00;99.90;;;;;;5089162;28;20624;-71
2023/11/16 02:10:38;;;;;;;3.90;1.20;;;7.00;99.90;;;;;;5085575;28;20632;-71
2023/11/16 02:13:17;;;;;;;0.80;0.77;;;6.90;99.90;;;;;;5096052;28;20617;-71
2023/11/16 02:15:46;;;;;;;1.47;0.70;;;6.80;99.90;;;;;;5088996;28;20981;-71
2023/11/16 02:18:14;;;;;;;1.30;1.20;;;6.90;99.90;;;;;;5088345;28;20652;-71
2023/11/16 02:20:44;;;;;;;0.80;0.80;;;6.90;99.90;;;;;;5087155;28;20278;-71
2023/11/16 02:23:13;;;;;;;0.82;0.80;;;6.90;99.90;;;;;;5091482;28;20195;-71
2023/11/16 02:25:44;;;;;;;1.35;0.98;;;6.90;99.90;;;;;;5088756;28;20735;-71
2023/11/16 02:28:12;;;;;;;1.20;1.10;;;7.00;99.90;;;;;;5088734;28;20206;-71
2023/11/16 02:30:40;;;;;;;1.67;1.27;;;6.90;99.90;;;;;;5088318;28;20631;-71
2023/11/16 02:33:09;;;;;;;0.97;0.80;;;7.00;99.90;;;;;;5089112;28;20628;-70
2023/11/16 02:35:37;;;;;;;1.00;1.00;;;7.00;99.90;;;;;;5088868;28;21010;-71
2023/11/16 02:38:06;;;;;;;1.23;0.97;;;7.00;99.90;;;;;;5088085;28;20648;-71
2023/11/16 02:40:35;;;;;;;1.17;0.90;;;7.00;99.90;;;;;;5089001;28;20620;-70
2023/11/16 02:43:03;;;;;;;1.02;0.90;;;6.90;99.90;;;;;;5093546;28;20625;-70
2023/11/16 02:45:32;;;;;;;0.83;0.63;;;7.00;99.90;;;;;;5090193;28;20202;-70
2023/11/16 02:48:00;;;;;;;5.90;1.13;;;7.00;99.90;;;;;;5095755;28;20631;-71
2023/11/16 02:50:29;;;;;;;6.57;1.73;;;6.90;99.90;;;;;;5088551;28;20636;-71
2023/11/16 02:52:56;;;;;;;1.43;1.33;;;6.90;99.90;;;;;;5091673;28;20621;-71
2023/11/16 02:55:24;;;;;;;1.37;1.00;;;7.00;99.90;;;;;;5088374;28;20609;-70
2023/11/16 02:57:55;;;;;;;1.33;1.23;;;6.90;99.90;;;;;;5087799;28;20660;-70
2023/11/16 03:00:22;;;;;;;3.13;1.48;;;6.80;99.90;;;;;;5087419;28;20720;-70
2023/11/16 03:02:50;;;;;;;0.80;0.77;;;6.70;99.90;;;;;;5093315;28;20200;-70
2023/11/16 03:05:21;;;;;;;1.13;0.93;;;6.70;99.90;;;;;;5087961;28;20199;-71
2023/11/16 03:07:50;;;;;;;2.17;0.80;;;6.70;99.90;;;;;;5092479;28;20285;-70
2023/11/16 03:10:17;;;;;;;1.25;1.08;;;6.70;99.90;;;;;;5089102;28;20660;-70
2023/11/16 03:12:45;;;;;;;1.48;1.35;;;6.60;99.90;;;;;;5089468;28;20301;-70
2023/11/16 03:15:14;;;;;;;1.23;1.03;;;6.60;99.90;;;;;;5091642;28;20202;-70
2023/11/16 03:17:43;;;;;;;1.30;1.13;;;6.60;99.90;;;;;;5087858;28;21053;-71
2023/11/16 03:20:12;;;;;;;1.80;1.10;;;6.50;99.90;;;;;;5088297;28;20199;-71
2023/11/16 03:22:40;;;;;;;2.15;1.10;;;6.60;99.90;;;;;;5092636;28;20714;-71
2023/11/16 03:25:09;;;;;;;1.13;1.13;;;6.70;99.90;;;;;;5087893;28;20650;-71
2023/11/16 03:27:37;;;;;;;1.10;0.70;;;6.70;99.90;;;;;;5089147;28;20199;-71
2023/11/16 03:30:05;;;;;;;1.40;1.23;;;6.70;99.90;;;;;;5088955;28;20561;-70
2023/11/16 03:32:35;;;;;;;1.03;0.97;;;6.60;99.90;;;;;;5089502;28;20727;-70
2023/11/16 03:35:03;;;;;;;0.83;0.83;;;6.60;99.90;;;;;;5088415;28;20624;-72
2023/11/16 03:37:31;;;;;;;1.17;0.70;;;6.70;99.90;;;;;;5091118;28;21237;-70
2023/11/16 03:39:59;;;;;;;1.13;1.02;;;6.60;99.90;;;;;;5094290;28;21109;-70
2023/11/16 03:42:26;;;;;;;0.40;0.40;;;6.60;99.90;;;;;;5093618;28;20196;-71
2023/11/16 03:44:54;;;;;;;0.63;0.63;;;6.50;99.90;;;;;;5087391;28;20718;-70
2023/11/16 03:47:22;;;;;;;1.88;1.00;;;6.50;99.90;;;;;;5092179;28;21205;-70
2023/11/16 03:49:51;;;;;;;0.90;0.90;;;6.50;99.90;;;;;;5086049;28;20253;-70
2023/11/16 03:52:25;;;;;;;1.67;1.57;;;6.60;99.90;;;;;;5089410;28;21049;-70
2023/11/16 03:54:52;;;;;;;1.25;1.02;;;6.60;99.90;;;;;;5089261;28;20632;-70
2023/11/16 03:57:19;;;;;;;1.67;1.57;;;6.60;99.90;;;;;;5087004;28;20198;-70
2023/11/16 03:59:45;;;;;;;1.90;1.37;;;6.60;99.90;;;;;;5086033;28;20664;-71
2023/11/16 04:02:12;;;;;;;0.73;0.73;;;6.60;99.90;;;;;;5086237;28;20663;-70
2023/11/16 04:04:39;;;;;;;1.10;0.90;;;6.60;99.90;;;;;;5086037;28;20613;-71
2023/11/16 04:07:08;;;;;;;1.30;1.20;;;6.70;99.90;;;;;;5086542;28;20717;-70
2023/11/16 04:09:37;;;;;;;1.07;0.90;;;6.70;99.90;;;;;;5086224;28;20660;-71
2023/11/16 04:12:05;;;;;;;1.40;1.20;;;6.70;99.90;;;;;;5088497;28;20621;-71
2023/11/16 04:14:32;;;;;;;0.60;0.60;;;6.70;99.90;;;;;;5086981;28;20622;-71
2023/11/16 04:16:59;;;;;;;1.73;1.20;;;6.70;99.90;;;;;;5086079;28;20696;-71
2023/11/16 04:19:26;;;;;;;0.97;0.97;;;6.70;99.90;;;;;;5086365;28;20666;-71
2023/11/16 04:21:54;;;;;;;1.17;1.00;;;6.70;99.90;;;;;;5099195;28;20837;-71
2023/11/16 04:24:23;;;;;;;0.90;0.90;;;6.70;99.90;;;;;;5095365;28;21046;-71
2023/11/16 04:26:49;;;;;;;1.73;1.37;;;6.70;99.90;;;;;;5087804;28;20195;-71
2023/11/16 04:29:17;;;;;;;2.93;1.40;;;6.80;99.90;;;;;;5088533;28;20625;-71
2023/11/16 04:31:44;;;;;;;1.23;1.00;;;6.80;99.90;;;;;;5086206;28;21082;-71
2023/11/16 04:34:12;;;;;;;1.27;1.07;;;6.80;99.90;;;;;;5089230;28;20634;-71
2023/11/16 04:36:41;;;;;;;0.60;0.60;;;6.90;99.90;;;;;;5087214;28;20927;-71
2023/11/16 04:39:08;;;;;;;2.20;1.60;;;6.90;99.90;;;;;;5086225;28;20682;-71
2023/11/16 04:41:37;;;;;;;1.60;1.37;;;6.90;99.90;;;;;;5087972;28;20716;-71
2023/11/16 04:44:05;;;;;;;6.30;1.48;;;7.00;99.90;;;;;;5086710;28;20744;-71
2023/11/16 04:46:31;;;;;;;2.83;1.20;;;7.10;99.90;;;;;;5086549;28;20310;-71
2023/11/16 04:48:59;;;;;;;1.23;1.10;;;7.10;99.90;;;;;;5084724;28;20626;-71
2023/11/16 04:51:26;;;;;;;1.53;1.20;;;7.10;99.90;;;;;;5087144;28;21108;-71
2023/11/16 04:53:53;;;;;;;1.23;1.13;;;7.30;99.90;;;;;;5087319;28;20631;-71
2023/11/16 04:56:19;;;;;;;2.73;1.17;;;7.20;99.90;;;;;;5086543;28;20625;-71
2023/11/16 04:58:48;;;;;;;1.03;0.60;;;7.30;99.90;;;;;;5089950;28;21171;-71
2023/11/16 05:01:16;;;;;;;3.73;1.50;;;7.30;99.90;;;;;;5089351;28;20625;-71
2023/11/16 05:03:44;;;;;;;1.40;1.30;;;7.20;99.90;;;;;;5097043;28;20982;-71
2023/11/16 05:06:11;;;;;;;0.93;0.90;;;7.20;99.90;;;;;;5098718;28;20624;-71
2023/11/16 05:08:37;;;;;;;1.70;0.80;;;7.30;99.90;;;;;;5091327;28;20712;-71
2023/11/16 05:11:05;;;;;;;1.23;1.00;;;7.30;99.90;;;;;;5090575;28;20617;-72
2023/11/16 05:13:32;;;;;;;1.23;1.10;;;7.30;99.90;;;;;;5091617;28;20735;-72
2023/11/16 05:16:00;;;;;;;0.97;0.87;;;7.30;99.90;;;;;;5090372;28;20620;-72
2023/11/16 05:18:28;;;;;;;4.13;1.33;;;7.30;99.90;;;;;;5082776;28;20639;-72
2023/11/16 05:20:54;;;;;;;1.73;1.33;;;7.30;99.90;;;;;;5099172;28;20985;-72
2023/11/16 05:23:21;;;;;;;1.73;1.37;;;7.20;99.90;;;;;;5095621;28;21208;-72
2023/11/16 05:25:49;;;;;;;1.10;1.00;;;7.20;99.90;;;;;;5095825;28;20663;-72
2023/11/16 05:28:16;;;;;;;3.47;1.67;;;7.20;99.90;;;;;;5090224;28;20983;-72
2023/11/16 05:30:43;;;;;;;3.03;1.17;;;7.10;99.90;;;;;;5090349;28;20621;-72
2023/11/16 05:33:12;;;;;;;1.83;1.10;;;7.00;99.90;;;;;;5090464;28;20625;-72
2023/11/16 05:35:39;;;;;;;1.33;0.93;;;7.00;99.90;;;;;;5091022;28;20799;-72
2023/11/16 05:38:06;;;;;;;1.57;1.27;;;7.00;99.90;;;;;;5092130;28;20963;-72
2023/11/16 05:40:33;;;;;;;1.73;0.80;;;6.90;99.90;;;;;;5096447;28;20691;-72
2023/11/16 05:43:01;;;;;;;0.87;0.87;;;7.00;99.90;;;;;;5091442;28;21272;-73
2023/11/16 05:45:29;;;;;;;1.47;1.37;;;6.90;99.90;;;;;;5100772;28;21007;-72
2023/11/16 05:47:56;;;;;;;1.13;0.80;;;7.00;99.90;;;;;;5080794;28;20724;-72
2023/11/16 05:50:25;;;;;;;0.70;0.60;;;7.10;99.90;;;;;;5091535;28;20974;-72
2023/11/16 05:52:52;;;;;;;1.60;0.80;;;7.00;99.90;;;;;;5090195;28;20621;-72
2023/11/16 05:55:20;;;;;;;1.27;0.90;;;7.10;99.90;;;;;;5091641;28;21031;-72
2023/11/16 05:57:47;;;;;;;2.57;1.30;;;7.10;99.90;;;;;;5082467;28;20727;-72
2023/11/16 06:00:15;;;;;;;1.13;1.00;;;7.20;99.90;;;;;;5090099;28;20667;-72
2023/11/16 06:02:42;;;;;;;1.70;1.60;;;7.10;99.90;;;;;;5090539;28;20721;-73
2023/11/16 06:05:11;;;;;;;7.40;1.47;;;7.20;99.90;;;;;;5089430;28;20624;-73
2023/11/16 06:07:39;;;;;;;2.43;1.10;;;7.20;99.90;;;;;;5089149;28;20631;-72
2023/11/16 06:10:10;;;;;;;1.70;1.60;;;7.20;99.90;;;;;;5089568;28;20644;-72
2023/11/16 06:12:37;;;;;;;3.63;1.20;;;7.30;99.90;;;;;;5100071;28;20738;-72
2023/11/16 06:15:06;;;;;;;1.60;1.03;;;7.30;99.90;;;;;;5091775;28;20621;-72
2023/11/16 06:17:32;;;;;;;2.10;1.30;;;7.20;99.90;;;;;;5095116;28;20732;-72
2023/11/16 06:19:59;;;;;;;1.17;1.07;;;7.20;99.90;;;;;;5094789;28;20673;-73
2023/11/16 06:22:26;;;;;;;2.00;0.83;;;7.20;99.90;;;;;;5093167;28;20625;-73
2023/11/16 06:24:54;;;;;;;2.97;1.03;;;7.20;99.90;;;;;;5089546;28;20633;-74
2023/11/16 06:27:21;;;;;;;1.30;1.20;;;7.20;99.90;;;;;;5088853;28;20859;-73
2023/11/16 06:29:48;;;;;;;1.90;0.97;;;7.20;99.90;;;;;;5080991;28;21166;-73
2023/11/16 06:32:15;;;;;;;0.97;0.87;;;7.20;99.90;;;;;;5081147;28;21450;-74
2023/11/16 06:34:41;;;;;;;0.87;0.87;;;7.10;99.90;;;;;;5086354;28;21063;-74
2023/11/16 06:37:09;;;;;;;1.77;1.20;;;7.10;99.90;;;;;;5087023;28;20985;-73
2023/11/16 06:39:37;;;;;;;1.20;1.10;;;7.20;99.90;;;;;;5094509;28;20671;-73
2023/11/16 06:42:05;;;;;;;4.83;1.37;;;7.20;99.90;;;;;;5094505;28;21212;-74
2023/11/16 06:44:32;;;;;;;1.10;0.80;;;7.00;99.90;;;;;;5093296;28;20617;-74
2023/11/16 06:46:59;;;;;;;0.80;0.80;;;7.00;99.90;;;;;;5084046;28;21302;-74
2023/11/16 06:49:27;;;;;;;2.93;1.63;;;7.10;99.90;;;;;;5092444;28;20651;-74
2023/11/16 06:51:53;;;;;;;2.70;1.57;;;7.20;99.90;;;;;;5096899;28;20627;-74
2023/11/16 06:54:21;;;;;;;2.40;1.03;;;7.10;99.90;;;;;;5094341;28;20620;-74
2023/11/16 06:56:49;;;;;;;1.77;1.60;;;7.10;99.90;;;;;;5091184;28;20624;-74
2023/11/16 06:59:19;;;;;;;2.70;1.23;;;7.10;99.90;;;;;;5086493;28;20924;-74
2023/11/16 07:01:47;;;;;;;1.57;1.47;;;7.10;99.90;;;;;;5087006;28;20628;-74
2023/11/16 07:04:15;;;;;;;1.47;1.30;;;7.10;99.90;;;;;;5095828;28;20943;-74
2023/11/16 07:06:42;;;;;;;0.93;0.93;;;7.10;99.90;;;;;;5087745;28;20717;-74
2023/11/16 07:09:11;;;;;;;1.80;1.33;;;7.20;99.90;;;;;;5087439;28;20635;-73
2023/11/16 07:11:38;;;;;;;2.00;1.80;;;7.20;99.90;;;;;;5087595;28;20638;-73
2023/11/16 07:14:06;;;;;;;1.87;1.77;;;7.20;99.90;;;;;;5087598;28;20641;-73
2023/11/16 07:16:34;;;;;;;1.23;1.13;;;7.20;99.90;;;;;;5093877;28;20682;-73
2023/11/16 07:19:01;;;;;;;4.07;1.27;;;7.20;99.90;;;;;;5093161;28;20631;-73
2023/11/16 07:21:28;;;;;;;2.47;1.77;;;7.20;99.90;;;;;;5088512;28;20636;-74
2023/11/16 07:23:54;;;;;;;2.37;1.30;;;7.30;99.90;;;;;;5087026;28;20644;-74
2023/11/16 07:26:21;;;;;;;2.57;1.40;;;7.20;99.90;;;;;;5087189;28;20664;-74
2023/11/16 07:28:48;;;;;;;2.27;1.30;;;7.30;99.90;;;;;;5086138;28;20757;-73
2023/11/16 07:31:19;;;;;;;1.53;1.43;;;7.30;99.90;;;;;;5086554;28;20668;-73
2023/11/16 07:33:51;;;;;;;2.37;1.33;;;7.40;99.90;;;;;;5088538;28;20712;-74
2023/11/16 07:36:23;;;;;;;1.93;1.60;;;7.40;99.90;;;;;;5086686;28;20709;-74
2023/11/16 07:38:52;;;;;;;2.70;1.20;;;7.40;99.90;;;;;;5077820;28;20681;-74
2023/11/16 07:41:20;;;;;;;1.03;0.93;;;7.40;99.90;;;;;;5085888;28;20620;-74
2023/11/16 07:43:47;;;;;;;1.20;1.07;;;7.40;99.90;;;;;;5093166;28;21197;-73
2023/11/16 07:46:14;;;;;;;1.97;1.20;;;7.50;99.90;;;;;;5085939;28;20624;-73
2023/11/16 07:48:41;;;;;;;4.53;2.07;;;7.50;99.90;;;;;;5091675;28;20667;-74
2023/11/16 07:51:12;;;;;;;1.80;1.53;;;7.50;99.90;;;;;;5085667;28;21003;-74
2023/11/16 07:53:40;;;;;;;1.87;1.20;;;7.60;99.90;;;;;;5097203;28;20629;-73
2023/11/16 07:56:08;;;;;;;1.90;1.30;;;7.60;99.90;;;;;;5088084;28;20630;-74
2023/11/16 07:58:37;;;;;;;1.93;1.60;;;7.60;99.90;;;;;;5093467;28;20663;-73
2023/11/16 08:01:11;;;;;;;4.90;1.67;;;7.70;99.90;;;;;;5086471;28;21244;-73
2023/11/16 08:03:43;;;;;;;1.57;1.47;;;7.60;99.90;;;;;;5093882;28;20728;-72
2023/11/16 08:06:13;;;;;;;2.70;2.00;;;7.80;99.90;;;;;;5091471;28;20620;-72
2023/11/16 08:08:42;;;;;;;2.33;2.00;;;7.70;99.90;;;;;;5095448;28;20635;-73
2023/11/16 08:11:11;;;;;;;2.53;1.23;;;7.70;99.90;;;;;;5085460;28;21136;-73
2023/11/16 08:13:40;;;;;;;2.13;1.63;;;7.80;99.90;;;;;;5094342;28;21031;-73
2023/11/16 08:16:09;;;;;;;2.30;1.23;;;7.80;99.90;;;;;;5091201;28;20624;-73
2023/11/16 08:18:37;;;;;;;0.77;0.73;;;7.80;99.90;;;;;;5089440;28;20685;-72
2023/11/16 08:21:06;;;;;;;3.13;1.40;;;7.80;99.90;;;;;;5091279;28;20664;-72
2023/11/16 08:23:38;;;;;;;4.60;1.80;;;7.90;99.90;;;;;;5091845;28;20722;-72
2023/11/16 08:26:07;;;;;;;1.40;1.30;;;7.90;99.90;;;;;;5093037;28;20678;-72
2023/11/16 08:28:34;;;;;;;4.10;1.73;;;8.00;99.90;;;;;;5096139;28;20716;-71
2023/11/16 08:31:02;;;;;;;4.13;3.20;;;7.90;99.90;;;;;;5087775;28;21205;-72
2023/11/16 08:33:31;;;;;;;2.30;1.33;;;8.00;99.90;;;;;;5089160;28;21244;-72
2023/11/16 08:35:58;;;;;;;1.70;1.60;;;8.10;99.90;;;;;;5095260;28;20631;-72
2023/11/16 08:38:26;;;;;;;1.83;1.73;;;8.10;99.90;;;;;;5085035;28;20622;-73
2023/11/16 08:40:55;;;;;;;1.97;1.30;;;8.10;99.90;;;;;;5094467;28;20669;-72
2023/11/16 08:43:22;;;;;;;3.40;1.47;;;8.10;99.90;;;;;;5087052;28;20694;-73
2023/11/16 08:45:51;;;;;;;1.87;1.70;;;8.10;99.90;;;;;;5078639;28;20621;-72
2023/11/16 08:48:30;;;;;;;1.73;1.50;;;8.10;99.90;;;;;;5095529;28;20612;-73
2023/11/16 08:50:58;;;;;;;1.80;1.53;;;8.20;99.90;;;;;;5087585;28;20631;-72
2023/11/16 08:53:28;;;;;;;1.23;1.00;;;8.30;99.90;;;;;;5092689;28;21010;-73
2023/11/16 08:55:58;;;;;;;1.43;1.33;;;8.30;99.90;;;;;;5089299;28;20728;-72
2023/11/16 08:58:30;;;;;;;2.37;1.10;;;8.30;99.90;;;;;;5089278;28;20633;-72
2023/11/16 09:00:58;;;;;;;1.77;1.20;;;8.40;99.90;;;;;;5092302;28;20669;-72
2023/11/16 09:03:27;;;;;;;2.07;1.87;;;8.20;99.90;;;;;;5088618;28;20663;-73
2023/11/16 09:05:54;;;;;;;6.33;1.43;;;8.30;99.90;;;;;;5091274;28;20635;-73
2023/11/16 09:08:23;;;;;;;1.10;1.00;;;8.30;99.90;;;;;;5088272;28;20626;-73
2023/11/16 09:10:51;;;;;;;1.20;1.10;;;8.30;99.90;;;;;;5082375;28;20633;-72
2023/11/16 09:13:19;;;;;;;1.20;1.00;;;8.40;99.90;;;;;;5088529;28;20673;-72
2023/11/16 09:15:46;;;;;;;1.07;1.07;;;8.40;99.90;;;;;;5093377;28;20620;-73
2023/11/16 09:18:13;;;;;;;2.27;1.23;;;8.50;99.90;;;;;;5095424;28;20727;-73
2023/11/16 09:20:40;;;;;;;2.90;1.47;;;8.50;99.90;;;;;;5088328;28;20652;-72
2023/11/16 09:23:10;;;;;;;2.20;2.00;;;8.50;99.90;;;;;;5093847;28;20643;-73
2023/11/16 09:25:38;;;;;;;2.33;2.00;;;8.60;99.90;;;;;;5097999;28;20633;-72
2023/11/16 09:28:06;;;;;;;1.87;1.23;;;8.60;99.90;;;;;;5100413;28;20624;-72
2023/11/16 09:30:38;;;;;;;2.73;2.07;;;8.60;99.90;;;;;;5087262;28;20728;-72
2023/11/16 09:33:08;;;;;;;5.10;1.80;;;8.60;99.90;;;;;;5098325;28;20711;-73
2023/11/16 09:35:34;;;;;;;2.50;1.60;;;8.70;99.90;;;;;;5098998;28;21030;-72
2023/11/16 09:38:08;;;;;;;4.27;1.47;;;8.80;99.90;;;;;;5085348;28;20723;-73
2023/11/16 09:40:36;;;;;;;1.53;1.43;;;8.80;99.90;;;;;;5085645;28;20672;-72
2023/11/16 09:43:16;;;;;;;1.70;1.10;;;8.80;99.90;;;;;;5091220;28;20633;-73
2023/11/16 09:45:48;;;;;;;2.63;1.20;;;8.90;99.90;;;;;;5092945;28;20656;-72
2023/11/16 09:48:20;;;;;;;1.30;1.20;;;9.00;99.90;;;;;;5091231;28;20619;-71
2023/11/16 09:50:48;;;;;;;2.87;1.43;;;8.90;99.90;;;;;;5092859;28;20625;-72
2023/11/16 09:53:17;;;;;;;2.40;1.57;;;8.90;99.90;;;;;;5096874;28;20673;-72
2023/11/16 09:55:49;;;;;;;1.53;1.43;;;8.80;99.90;;;;;;5091785;28;20629;-72
2023/11/16 09:58:21;;;;;;;1.63;1.53;;;8.90;99.90;;;;;;5093319;28;20621;-72
2023/11/16 10:00:55;;;;;;;5.03;1.60;;;8.90;99.90;;;;;;5090164;28;20656;-72
2023/11/16 10:03:25;;;;;;;1.60;1.50;;;8.90;99.90;;;;;;5093674;28;20636;-72
2023/11/16 10:05:55;;;;;;;3.27;2.00;;;8.90;99.90;;;;;;5088695;28;20661;-72
2023/11/16 10:08:23;;;;;;;3.90;2.47;;;8.90;99.90;;;;;;5094241;28;20625;-73
2023/11/16 10:10:54;;;;;;;1.97;1.50;;;8.90;99.90;;;;;;5099183;28;20722;-73
2023/11/16 10:13:22;;;;;;;1.57;1.43;;;8.90;99.90;;;;;;5093128;28;20648;-72
2023/11/16 10:15:52;;;;;;;2.50;1.10;;;8.90;99.90;;;;;;5093210;28;20624;-73
2023/11/16 10:18:19;;;;;;;2.73;1.43;;;8.90;99.90;;;;;;5088452;28;20670;-72
2023/11/16 10:20:46;;;;;;;0.80;0.80;;;8.90;99.90;;;;;;5096656;28;20699;-73
2023/11/16 10:23:13;;;;;;;1.03;1.00;;;9.00;99.90;;;;;;5093663;28;20628;-73
2023/11/16 10:25:41;;;;;;;2.10;1.33;;;9.10;99.90;;;;;;5088393;28;20743;-71
2023/11/16 10:28:15;;;;;;;2.97;1.67;;;9.10;99.90;;;;;;5089846;28;20687;-72
2023/11/16 10:30:46;;;;;;;4.10;1.40;;;9.00;99.90;;;;;;5091559;28;20640;-72
2023/11/16 10:33:17;;;;;;;6.67;1.40;;;9.00;99.90;;;;;;5099272;28;20617;-72
2023/11/16 10:35:47;;;;;;;2.37;1.20;;;9.10;99.90;;;;;;5104325;28;20653;-73
2023/11/16 10:38:16;;;;;;;1.13;1.03;;;9.00;99.90;;;;;;5094910;28;21080;-72
2023/11/16 10:40:46;;;;;;;2.07;1.17;;;9.00;99.90;;;;;;5105699;28;20667;-73
2023/11/16 10:43:18;;;;;;;3.40;1.13;;;9.10;99.90;;;;;;5098585;28;21046;-72
2023/11/16 10:45:45;;;;;;;1.20;0.70;;;9.10;99.90;;;;;;5096445;28;20621;-72
2023/11/16 10:48:13;;;;;;;1.63;1.40;;;9.20;99.90;;;;;;5096266;28;20725;-72
2023/11/16 10:50:43;;;;;;;1.83;1.50;;;9.10;99.90;;;;;;5089993;28;20727;-72
2023/11/16 10:53:18;;;;;;;3.60;1.47;;;9.10;99.90;;;;;;5095103;28;21055;-73
2023/11/16 10:55:49;;;;;;;3.37;2.07;;;9.10;99.90;;;;;;5088959;27;20623;-72
2023/11/16 10:58:20;;;;;;;22.27;1.83;;;9.10;99.90;;;;;;5086389;28;21177;-73
2023/11/16 11:00:51;;;;;;;2.57;2.00;;;9.10;99.90;;;;;;5093284;28;20656;-72
2023/11/16 11:03:19;;;;;;;1.67;1.57;;;9.10;99.90;;;;;;5090323;28;20633;-73
2023/11/16 11:05:52;;;;;;;1.83;1.13;;;9.20;99.90;;;;;;5088019;28;20645;-73
2023/11/16 11:08:19;;;;;;;2.30;1.07;;;9.10;99.90;;;;;;5093802;28;20678;-73
2023/11/16 11:10:47;;;;;;;2.13;1.13;;;9.10;99.90;;;;;;5098291;28;20628;-76
2023/11/16 11:13:18;;;;;;;1.13;1.03;;;9.10;99.90;;;;;;5096232;28;20631;-76
2023/11/16 11:15:48;;;;;;;2.97;1.30;;;9.20;99.90;;;;;;5090433;28;20657;-74
2023/11/16 11:18:25;;;;;;;2.10;1.53;;;9.30;99.90;;;;;;5087180;28;20736;-74
2023/11/16 11:21:04;;;;;;;5.97;1.10;;;9.30;99.90;;;;;;5083296;28;20684;-74
2023/11/16 11:23:31;;;;;;;2.30;1.50;;;9.30;99.90;;;;;;5093841;28;20625;-75
2023/11/16 11:26:03;;;;;;;2.50;1.50;;;9.30;99.90;;;;;;5087201;28;20631;-74
2023/11/16 11:28:30;;;;;;;1.33;1.20;;;9.40;99.90;;;;;;5087168;28;20640;-74
2023/11/16 11:30:59;;;;;;;3.43;2.53;;;9.50;99.90;;;;;;5087415;28;21189;-73
2023/11/16 11:33:34;;;;;;;2.00;1.30;;;9.60;99.90;;;;;;5087757;28;20636;-74
2023/11/16 11:36:07;;;;;;;2.70;1.33;;;9.60;99.90;;;;;;5104699;28;20635;-73
2023/11/16 11:38:36;;;;;;;1.53;1.43;;;9.60;99.90;;;;;;5087756;28;21122;-74
2023/11/16 11:41:06;;;;;;;1.77;1.67;;;9.60;99.90;;;;;;5087258;28;21077;-74
2023/11/16 11:43:34;;;;;;;1.83;1.73;;;9.70;99.90;;;;;;5098692;28;20644;-75
2023/11/16 11:46:01;;;;;;;2.97;2.20;;;9.80;99.90;;;;;;5106861;28;20624;-75
2023/11/16 11:48:29;;;;;;;5.00;2.50;;;9.80;99.90;;;;;;5096972;28;21026;-73
2023/11/16 11:50:57;;;;;;;5.80;3.40;;;9.70;99.90;;;;;;5087732;28;21004;-71
2023/11/16 11:53:29;;;;;;;6.07;3.13;;;9.60;99.90;;;;;;5086590;28;21087;-71
2023/11/16 11:55:57;;;;;;;5.47;3.67;;;9.50;99.90;;;;;;5090632;28;20983;-71
2023/11/16 11:58:24;;;;;;;5.57;4.20;;;9.60;99.90;;;;;;5086067;28;20637;-72
2023/11/16 12:00:52;;;;;;;5.00;3.93;;;9.50;99.90;;;;;;5087080;28;20665;-72
2023/11/16 12:03:19;;;;;;;4.90;3.80;;;9.50;99.90;;;;;;5089543;28;20725;-72
2023/11/16 12:05:55;;;;;;;10.17;4.10;;;9.50;99.90;;;;;;5093380;28;20641;-71
2023/11/16 12:08:22;;;;;;;5.70;3.20;;;9.50;99.90;;;;;;5092142;28;20657;-72
2023/11/16 12:10:51;;;;;;;3.60;2.80;;;9.50;99.90;;;;;;5095929;28;20628;-71
2023/11/16 12:13:18;;;;;;;4.50;3.50;;;9.50;99.90;;;;;;5087073;28;21011;-72
2023/11/16 12:15:45;;;;;;;3.93;3.57;;;9.50;99.90;;;;;;5089115;28;20648;-71
2023/11/16 12:18:15;;;;;;;5.67;4.40;;;9.40;99.90;;;;;;5093930;28;20621;-75
2023/11/16 12:20:42;;;;;;;3.97;3.57;;;9.50;99.90;;;;;;5096375;28;20656;-74
2023/11/16 12:23:09;;;;;;;4.47;3.97;;;9.50;99.90;;;;;;5089107;28;20714;-75
2023/11/16 12:25:37;;;;;;;3.50;3.20;;;9.40;99.90;;;;;;5096602;28;20660;-74
2023/11/16 12:28:05;;;;;;;7.13;4.10;;;9.40;99.90;;;;;;5100248;28;20731;-74
2023/11/16 12:30:37;;;;;;;4.30;3.93;;;9.40;99.90;;;;;;5090644;28;20628;-75
2023/11/16 12:33:06;;;;;;;3.93;3.27;;;9.20;99.90;;;;;;5101951;28;20624;-74
2023/11/16 12:35:37;;;;;;;9.43;3.83;;;9.10;99.90;;;;;;5085563;28;20628;-76
2023/11/16 12:38:05;;;;;;;4.10;3.20;;;9.10;99.90;;;;;;5097938;28;20624;-75
2023/11/16 12:40:32;;;;;;;3.20;2.90;;;9.10;99.90;;;;;;5102821;28;20620;-75
2023/11/16 12:43:00;;;;;;;4.00;2.50;;;9.00;99.90;;;;;;5103149;28;20695;-75
2023/11/16 12:45:30;;;;;;;4.07;2.60;;;9.00;99.90;;;;;;5104466;28;20670;-75
2023/11/16 12:47:57;;;;;;;4.23;2.57;;;8.80;99.90;;;;;;5082536;28;20624;-75
2023/11/16 12:50:27;;;;;;;3.53;3.20;;;8.90;99.90;;;;;;5088926;28;21031;-75
2023/11/16 12:52:54;;;;;;;4.80;2.07;;;8.90;99.90;;;;;;5089262;28;21189;-74
2023/11/16 12:55:20;;;;;;;4.30;2.97;;;8.80;99.90;;;;;;5086602;28;20617;-75
2023/11/16 12:57:48;;;;;;;2.40;2.20;;;8.70;99.90;;;;;;5088157;28;20663;-75
2023/11/16 13:00:17;;;;;;;4.30;2.60;;;8.80;99.90;;;;;;5087729;28;21227;-75
2023/11/16 13:02:45;;;;;;;4.50;2.93;;;8.70;99.90;;;;;;5092196;28;21246;-75
2023/11/16 13:05:15;;;;;;;3.57;2.80;;;8.70;99.90;;;;;;5090739;28;20736;-75